sensor_id;sensor_type;location;lat;lon;timestamp;pressure;altitude;pressure_sealevel;temperature;humidity
38285;BME280;24088;42.664;23.354;2022-12-31T00:00:50;96087.22;;;5.13;100.00
38285;BME280;24088;42.664;23.354;2022-12-31T00:01:51;96089.38;;;5.23;100.00
38285;BME280;24088;42.664;23.354;2022-12-31T00:02:52;96087.22;;;5.13;100.00
38285;BME280;24088;42.664;23.354;2022-12-31T00:03:53;96086.63;;;5.04;100.00
38285;BME280;24088;42.664;23.354;2022-12-31T00:04:54;96078.34;;;4.97;100.00
38285;BME280;24088;42.664;23.354;2022-12-31T00:05:56;96082.41;;;4.87;100.00
38285;BME280;24088;42.664;23.354;2022-12-31T00:06:56;96084.94;;;5.15;100.00
38285;BME280;24088;42.664;23.354;2022-12-31T00:07:58;96083.66;;;5.28;100.00
38285;BME280;24088;42.664;23.354;2022-12-31T00:08:59;96083.50;;;5.41;100.00
38285;BME280;24088;42.664;23.354;2022-12-31T00:10:01;96080.34;;;5.39;100.00
38285;BME280;24088;42.664;23.354;2022-12-31T00:11:01;96073.47;;;5.25;100.00
38285;BME280;24088;42.664;23.354;2022-12-31T00:12:03;96078.84;;;5.22;100.00
38285;BME280;24088;42.664;23.354;2022-12-31T00:13:04;96083.78;;;5.16;100.00
38285;BME280;24088;42.664;23.354;2022-12-31T00:14:06;96080.19;;;5.12;100.00
38285;BME280;24088;42.664;23.354;2022-12-31T00:15:07;96077.97;;;5.18;100.00
38285;BME280;24088;42.664;23.354;2022-12-31T00:16:10;96075.03;;;5.07;100.00
38285;BME280;24088;42.664;23.354;2022-12-31T00:17:11;96079.63;;;5.03;100.00
38285;BME280;24088;42.664;23.354;2022-12-31T00:18:13;96069.69;;;5.11;100.00
38285;BME280;24088;42.664;23.354;2022-12-31T00:19:13;96080.13;;;5.09;100.00
38285;BME280;24088;42.664;23.354;2022-12-31T00:20:15;96080.66;;;5.14;100.00
38285;BME280;24088;42.664;23.354;2022-12-31T00:21:17;96083.50;;;5.02;100.00
38285;BME280;24088;42.664;23.354;2022-12-31T00:22:18;96079.06;;;5.13;100.00
38285;BME280;24088;42.664;23.354;2022-12-31T00:23:19;96085.09;;;5.22;100.00
38285;BME280;24088;42.664;23.354;2022-12-31T00:24:20;96087.38;;;5.20;100.00
38285;BME280;24088;42.664;23.354;2022-12-31T00:25:21;96089.69;;;5.18;100.00
38285;BME280;24088;42.664;23.354;2022-12-31T00:26:23;96087.66;;;5.15;100.00
38285;BME280;24088;42.664;23.354;2022-12-31T00:27:24;96086.16;;;5.37;100.00
38285;BME280;24088;42.664;23.354;2022-12-31T00:28:25;96083.34;;;5.53;100.00
38285;BME280;24088;42.664;23.354;2022-12-31T00:29:27;96085.91;;;5.65;100.00
38285;BME280;24088;42.664;23.354;2022-12-31T00:30:29;96083.84;;;5.59;100.00
38285;BME280;24088;42.664;23.354;2022-12-31T00:31:30;96087.38;;;5.40;100.00
38285;BME280;24088;42.664;23.354;2022-12-31T00:32:32;96086.84;;;5.34;100.00
38285;BME280;24088;42.664;23.354;2022-12-31T00:33:32;96088.72;;;5.30;100.00
38285;BME280;24088;42.664;23.354;2022-12-31T00:34:33;96081.06;;;5.36;100.00
38285;BME280;24088;42.664;23.354;2022-12-31T00:35:34;96090.66;;;5.49;100.00
38285;BME280;24088;42.664;23.354;2022-12-31T00:36:36;96097.59;;;5.66;100.00
38285;BME280;24088;42.664;23.354;2022-12-31T00:37:37;96096.94;;;5.72;100.00
38285;BME280;24088;42.664;23.354;2022-12-31T00:38:39;96100.50;;;5.76;100.00
38285;BME280;24088;42.664;23.354;2022-12-31T00:39:40;96104.91;;;5.62;100.00
38285;BME280;24088;42.664;23.354;2022-12-31T00:40:41;96100.88;;;5.56;100.00
38285;BME280;24088;42.664;23.354;2022-12-31T00:41:42;96100.47;;;5.53;100.00
38285;BME280;24088;42.664;23.354;2022-12-31T00:42:44;96105.00;;;5.46;100.00
38285;BME280;24088;42.664;23.354;2022-12-31T00:43:44;96101.66;;;5.56;100.00
38285;BME280;24088;42.664;23.354;2022-12-31T00:44:47;96110.50;;;5.49;100.00
38285;BME280;24088;42.664;23.354;2022-12-31T00:45:48;96109.00;;;5.52;100.00
38285;BME280;24088;42.664;23.354;2022-12-31T00:46:49;96116.16;;;5.60;100.00
38285;BME280;24088;42.664;23.354;2022-12-31T00:47:50;96109.00;;;5.52;100.00
38285;BME280;24088;42.664;23.354;2022-12-31T00:48:51;96116.44;;;5.55;100.00
38285;BME280;24088;42.664;23.354;2022-12-31T00:49:52;96114.72;;;5.47;100.00
38285;BME280;24088;42.664;23.354;2022-12-31T00:50:54;96106.22;;;5.48;100.00
38285;BME280;24088;42.664;23.354;2022-12-31T00:51:54;96106.25;;;5.52;100.00
38285;BME280;24088;42.664;23.354;2022-12-31T00:52:56;96108.84;;;5.64;100.00
38285;BME280;24088;42.664;23.354;2022-12-31T00:53:56;96113.31;;;5.53;100.00
38285;BME280;24088;42.664;23.354;2022-12-31T00:54:58;96109.56;;;5.61;100.00
38285;BME280;24088;42.664;23.354;2022-12-31T00:55:59;96117.00;;;5.64;100.00
38285;BME280;24088;42.664;23.354;2022-12-31T00:57:01;96112.84;;;5.70;100.00
38285;BME280;24088;42.664;23.354;2022-12-31T00:58:01;96115.94;;;5.69;100.00
38285;BME280;24088;42.664;23.354;2022-12-31T00:59:03;96119.16;;;5.55;100.00
38285;BME280;24088;42.664;23.354;2022-12-31T01:00:07;96116.28;;;5.48;100.00
38285;BME280;24088;42.664;23.354;2022-12-31T01:01:08;96118.03;;;5.37;100.00
38285;BME280;24088;42.664;23.354;2022-12-31T01:02:10;96114.47;;;5.33;100.00
38285;BME280;24088;42.664;23.354;2022-12-31T01:03:10;96115.94;;;5.30;100.00
38285;BME280;24088;42.664;23.354;2022-12-31T01:04:13;96113.31;;;5.34;100.00
38285;BME280;24088;42.664;23.354;2022-12-31T01:05:14;96121.31;;;5.26;100.00
38285;BME280;24088;42.664;23.354;2022-12-31T01:06:15;96126.13;;;5.33;100.00
38285;BME280;24088;42.664;23.354;2022-12-31T01:07:16;96130.66;;;5.45;100.00
38285;BME280;24088;42.664;23.354;2022-12-31T01:08:17;96130.88;;;5.36;100.00
38285;BME280;24088;42.664;23.354;2022-12-31T01:09:18;96128.34;;;5.27;100.00
38285;BME280;24088;42.664;23.354;2022-12-31T01:10:20;96118.38;;;5.16;100.00
38285;BME280;24088;42.664;23.354;2022-12-31T01:11:35;96127.50;;;5.23;100.00
38285;BME280;24088;42.664;23.354;2022-12-31T01:12:37;96121.69;;;5.25;100.00
38285;BME280;24088;42.664;23.354;2022-12-31T01:13:37;96127.22;;;5.28;100.00
38285;BME280;24088;42.664;23.354;2022-12-31T01:14:39;96138.88;;;5.29;100.00
38285;BME280;24088;42.664;23.354;2022-12-31T01:15:42;96131.28;;;5.19;100.00
38285;BME280;24088;42.664;23.354;2022-12-31T01:16:43;96143.03;;;5.23;100.00
38285;BME280;24088;42.664;23.354;2022-12-31T01:17:45;96138.38;;;5.23;100.00
38285;BME280;24088;42.664;23.354;2022-12-31T01:18:46;96134.13;;;5.26;100.00
38285;BME280;24088;42.664;23.354;2022-12-31T01:19:47;96133.44;;;5.29;100.00
38285;BME280;24088;42.664;23.354;2022-12-31T01:20:49;96130.78;;;5.33;100.00
38285;BME280;24088;42.664;23.354;2022-12-31T01:21:49;96130.09;;;5.36;100.00
38285;BME280;24088;42.664;23.354;2022-12-31T01:22:51;96130.72;;;5.29;100.00
38285;BME280;24088;42.664;23.354;2022-12-31T01:23:52;96127.50;;;5.23;100.00
38285;BME280;24088;42.664;23.354;2022-12-31T01:24:53;96133.44;;;5.29;100.00
38285;BME280;24088;42.664;23.354;2022-12-31T01:25:54;96139.47;;;5.19;100.00
38285;BME280;24088;42.664;23.354;2022-12-31T01:26:55;96135.09;;;5.14;100.00
38285;BME280;24088;42.664;23.354;2022-12-31T01:27:57;96136.50;;;5.08;100.00
38285;BME280;24088;42.664;23.354;2022-12-31T01:28:58;96135.78;;;5.11;100.00
38285;BME280;24088;42.664;23.354;2022-12-31T01:29:59;96135.34;;;5.09;100.00
38285;BME280;24088;42.664;23.354;2022-12-31T01:31:03;96133.78;;;5.08;100.00
38285;BME280;24088;42.664;23.354;2022-12-31T01:32:05;96133.94;;;5.15;100.00
38285;BME280;24088;42.664;23.354;2022-12-31T01:33:06;96136.66;;;5.15;100.00
38285;BME280;24088;42.664;23.354;2022-12-31T01:34:07;96138.34;;;5.04;100.00
38285;BME280;24088;42.664;23.354;2022-12-31T01:35:09;96138.63;;;4.99;100.00
38285;BME280;24088;42.664;23.354;2022-12-31T01:36:10;96136.63;;;4.96;100.00
38285;BME280;24088;42.664;23.354;2022-12-31T01:37:12;96143.09;;;5.07;100.00
38285;BME280;24088;42.664;23.354;2022-12-31T01:38:13;96138.88;;;5.10;100.00
38285;BME280;24088;42.664;23.354;2022-12-31T01:39:14;96134.34;;;5.17;100.00
38285;BME280;24088;42.664;23.354;2022-12-31T01:40:15;96131.22;;;5.15;100.00
38285;BME280;24088;42.664;23.354;2022-12-31T01:41:18;96135.88;;;5.15;100.00
38285;BME280;24088;42.664;23.354;2022-12-31T01:42:19;96132.88;;;5.20;100.00
38285;BME280;24088;42.664;23.354;2022-12-31T01:43:20;96139.31;;;5.50;100.00
38285;BME280;24088;42.664;23.354;2022-12-31T01:45:41;96138.59;;;5.34;100.00
38285;BME280;24088;42.664;23.354;2022-12-31T01:46:45;96142.75;;;5.28;100.00
38285;BME280;24088;42.664;23.354;2022-12-31T01:47:47;96139.16;;;5.24;100.00
38285;BME280;24088;42.664;23.354;2022-12-31T01:48:51;96144.91;;;5.19;100.00
38285;BME280;24088;42.664;23.354;2022-12-31T01:49:53;96143.59;;;5.13;100.00
38285;BME280;24088;42.664;23.354;2022-12-31T01:50:56;96146.09;;;5.02;100.00
38285;BME280;24088;42.664;23.354;2022-12-31T01:51:59;96145.44;;;4.89;100.00
38285;BME280;24088;42.664;23.354;2022-12-31T01:53:02;96139.63;;;4.91;100.00
38285;BME280;24088;42.664;23.354;2022-12-31T01:54:05;96145.50;;;4.93;100.00
38285;BME280;24088;42.664;23.354;2022-12-31T01:55:07;96149.09;;;4.97;100.00
38285;BME280;24088;42.664;23.354;2022-12-31T01:56:12;96147.41;;;4.92;100.00
38285;BME280;24088;42.664;23.354;2022-12-31T01:57:14;96144.47;;;4.82;100.00
38285;BME280;24088;42.664;23.354;2022-12-31T01:58:16;96149.66;;;4.71;100.00
38285;BME280;24088;42.664;23.354;2022-12-31T01:59:18;96142.34;;;4.75;100.00
38285;BME280;24088;42.664;23.354;2022-12-31T02:00:21;96145.44;;;4.89;100.00
38285;BME280;24088;42.664;23.354;2022-12-31T02:01:23;96142.34;;;4.91;100.00
38285;BME280;24088;42.664;23.354;2022-12-31T02:02:26;96145.16;;;4.94;100.00
38285;BME280;24088;42.664;23.354;2022-12-31T02:03:27;96137.19;;;5.05;100.00
38285;BME280;24088;42.664;23.354;2022-12-31T02:04:29;96144.03;;;5.15;100.00
38285;BME280;24088;42.664;23.354;2022-12-31T02:05:30;96133.06;;;5.11;100.00
38285;BME280;24088;42.664;23.354;2022-12-31T02:06:35;96146.19;;;5.06;100.00
38285;BME280;24088;42.664;23.354;2022-12-31T02:07:37;96146.44;;;5.00;100.00
38285;BME280;24088;42.664;23.354;2022-12-31T02:08:39;96149.44;;;4.95;100.00
38285;BME280;24088;42.664;23.354;2022-12-31T02:09:39;96152.00;;;4.88;100.00
38285;BME280;24088;42.664;23.354;2022-12-31T02:10:42;96144.69;;;4.92;100.00
38285;BME280;24088;42.664;23.354;2022-12-31T02:11:42;96151.88;;;5.00;100.00
38285;BME280;24088;42.664;23.354;2022-12-31T02:12:44;96155.81;;;5.03;100.00
38285;BME280;24088;42.664;23.354;2022-12-31T02:13:45;96156.69;;;5.07;100.00
38285;BME280;24088;42.664;23.354;2022-12-31T02:14:47;96159.44;;;4.91;100.00
38285;BME280;24088;42.664;23.354;2022-12-31T02:15:50;96151.94;;;4.85;100.00
38285;BME280;24088;42.664;23.354;2022-12-31T02:16:55;96153.09;;;4.68;100.00
38285;BME280;24088;42.664;23.354;2022-12-31T02:18:02;96157.81;;;4.71;100.00
38285;BME280;24088;42.664;23.354;2022-12-31T02:19:14;96157.25;;;4.46;100.00
38285;BME280;24088;42.664;23.354;2022-12-31T02:20:27;96152.94;;;4.45;100.00
38285;BME280;24088;42.664;23.354;2022-12-31T02:22:57;96156.09;;;4.31;100.00
38285;BME280;24088;42.664;23.354;2022-12-31T02:26:45;96157.91;;;4.74;100.00
38285;BME280;24088;42.664;23.354;2022-12-31T02:27:52;96151.84;;;4.65;100.00
38285;BME280;24088;42.664;23.354;2022-12-31T02:29:08;96148.19;;;4.58;100.00
38285;BME280;24088;42.664;23.354;2022-12-31T02:30:17;96148.81;;;4.67;100.00
38285;BME280;24088;42.664;23.354;2022-12-31T02:31:20;96159.63;;;4.83;100.00
38285;BME280;24088;42.664;23.354;2022-12-31T02:32:27;96155.47;;;4.69;100.00
38285;BME280;24088;42.664;23.354;2022-12-31T02:33:31;96160.63;;;4.74;100.00
38285;BME280;24088;42.664;23.354;2022-12-31T02:34:32;96159.69;;;4.67;100.00
38285;BME280;24088;42.664;23.354;2022-12-31T02:35:37;96161.06;;;4.76;100.00
38285;BME280;24088;42.664;23.354;2022-12-31T02:36:41;96163.16;;;4.83;100.00
38285;BME280;24088;42.664;23.354;2022-12-31T02:37:44;96160.34;;;4.80;100.00
38285;BME280;24088;42.664;23.354;2022-12-31T02:38:47;96161.78;;;4.73;100.00
38285;BME280;24088;42.664;23.354;2022-12-31T02:39:49;96168.69;;;4.71;100.00
38285;BME280;24088;42.664;23.354;2022-12-31T02:40:51;96167.47;;;4.68;100.00
38285;BME280;24088;42.664;23.354;2022-12-31T02:41:53;96171.34;;;4.67;100.00
38285;BME280;24088;42.664;23.354;2022-12-31T02:42:54;96175.81;;;4.60;100.00
38285;BME280;24088;42.664;23.354;2022-12-31T02:43:55;96176.69;;;4.64;100.00
38285;BME280;24088;42.664;23.354;2022-12-31T02:44:55;96175.13;;;4.63;100.00
38285;BME280;24088;42.664;23.354;2022-12-31T02:46:00;96179.56;;;4.71;100.00
38285;BME280;24088;42.664;23.354;2022-12-31T02:47:09;96173.63;;;4.65;100.00
38285;BME280;24088;42.664;23.354;2022-12-31T02:48:19;96177.50;;;4.64;100.00
38285;BME280;24088;42.664;23.354;2022-12-31T02:49:26;96181.44;;;4.51;100.00
38285;BME280;24088;42.664;23.354;2022-12-31T02:50:32;96181.00;;;4.49;100.00
38285;BME280;24088;42.664;23.354;2022-12-31T02:51:38;96172.06;;;4.48;100.00
38285;BME280;24088;42.664;23.354;2022-12-31T02:52:45;96181.00;;;4.49;100.00
38285;BME280;24088;42.664;23.354;2022-12-31T02:53:54;96174.84;;;4.52;100.00
38285;BME280;24088;42.664;23.354;2022-12-31T02:55:02;96176.69;;;4.48;100.00
38285;BME280;24088;42.664;23.354;2022-12-31T02:56:07;96175.81;;;4.44;100.00
38285;BME280;24088;42.664;23.354;2022-12-31T02:57:12;96170.38;;;4.60;100.00
38285;BME280;24088;42.664;23.354;2022-12-31T02:58:17;96172.22;;;4.56;100.00
38285;BME280;24088;42.664;23.354;2022-12-31T02:59:21;96172.50;;;4.50;100.00
38285;BME280;24088;42.664;23.354;2022-12-31T03:00:44;96174.06;;;4.51;100.00
38285;BME280;24088;42.664;23.354;2022-12-31T03:02:07;96176.88;;;4.55;100.00
38285;BME280;24088;42.664;23.354;2022-12-31T03:03:18;96174.84;;;4.52;100.00
38285;BME280;24088;42.664;23.354;2022-12-31T03:04:19;96177.25;;;4.38;100.00
38285;BME280;24088;42.664;23.354;2022-12-31T03:05:36;96172.91;;;4.37;100.00
38285;BME280;24088;42.664;23.354;2022-12-31T03:06:40;96174.78;;;4.48;100.00
38285;BME280;24088;42.664;23.354;2022-12-31T03:07:41;96165.72;;;4.60;100.00
38285;BME280;24088;42.664;23.354;2022-12-31T03:08:43;96169.50;;;4.56;100.00
38285;BME280;24088;42.664;23.354;2022-12-31T03:09:58;96169.50;;;4.40;100.00
38285;BME280;24088;42.664;23.354;2022-12-31T03:11:00;96166.34;;;4.22;100.00
38285;BME280;24088;42.664;23.354;2022-12-31T03:12:21;96165.56;;;4.21;100.00
38285;BME280;24088;42.664;23.354;2022-12-31T03:13:41;96165.38;;;4.14;100.00
38285;BME280;24088;42.664;23.354;2022-12-31T03:14:42;96166.72;;;4.20;100.00
38285;BME280;24088;42.664;23.354;2022-12-31T03:15:43;96163.81;;;4.29;100.00
38285;BME280;24088;42.664;23.354;2022-12-31T03:16:44;96166.38;;;4.38;100.00
38285;BME280;24088;42.664;23.354;2022-12-31T03:17:48;96162.41;;;4.19;100.00
38285;BME280;24088;42.664;23.354;2022-12-31T03:18:49;96159.41;;;4.09;100.00
38285;BME280;24088;42.664;23.354;2022-12-31T03:20:05;96161.16;;;4.01;100.00
38285;BME280;24088;42.664;23.354;2022-12-31T03:21:21;96162.66;;;3.98;100.00
38285;BME280;24088;42.664;23.354;2022-12-31T03:22:51;96157.50;;;4.09;100.00
38285;BME280;24088;42.664;23.354;2022-12-31T03:23:52;96163.63;;;4.22;100.00
38285;BME280;24088;42.664;23.354;2022-12-31T03:25:12;96163.91;;;4.17;100.00
38285;BME280;24088;42.664;23.354;2022-12-31T03:26:32;96157.94;;;4.11;100.00
38285;BME280;24088;42.664;23.354;2022-12-31T03:27:32;96161.44;;;4.12;100.00
38285;BME280;24088;42.664;23.354;2022-12-31T03:28:34;96162.59;;;4.26;100.00
38285;BME280;24088;42.664;23.354;2022-12-31T03:29:35;96161.03;;;4.41;100.00
38285;BME280;24088;42.664;23.354;2022-12-31T03:30:37;96165.81;;;4.48;100.00
38285;BME280;24088;42.664;23.354;2022-12-31T03:31:39;96165.41;;;4.30;100.00
38285;BME280;24088;42.664;23.354;2022-12-31T03:32:40;96166.00;;;4.08;100.00
38285;BME280;24088;42.664;23.354;2022-12-31T03:33:43;96164.41;;;4.07;100.00
38285;BME280;24088;42.664;23.354;2022-12-31T03:34:44;96170.03;;;4.14;100.00
38285;BME280;24088;42.664;23.354;2022-12-31T03:35:45;96163.53;;;4.18;100.00
38285;BME280;24088;42.664;23.354;2022-12-31T03:36:47;96171.75;;;4.06;100.00
38285;BME280;24088;42.664;23.354;2022-12-31T03:37:48;96157.28;;;4.02;100.00
38285;BME280;24088;42.664;23.354;2022-12-31T03:38:49;96160.91;;;4.06;100.00
38285;BME280;24088;42.664;23.354;2022-12-31T03:39:51;96171.44;;;4.08;100.00
38285;BME280;24088;42.664;23.354;2022-12-31T03:40:51;96158.69;;;3.96;100.00
38285;BME280;24088;42.664;23.354;2022-12-31T03:41:53;96170.44;;;4.00;100.00
38285;BME280;24088;42.664;23.354;2022-12-31T03:42:54;96164.72;;;3.89;100.00
38285;BME280;24088;42.664;23.354;2022-12-31T03:43:55;96173.03;;;3.81;100.00
38285;BME280;24088;42.664;23.354;2022-12-31T03:44:56;96164.41;;;3.91;100.00
38285;BME280;24088;42.664;23.354;2022-12-31T03:45:57;96165.59;;;3.93;100.00
38285;BME280;24088;42.664;23.354;2022-12-31T03:47:00;96169.28;;;3.85;100.00
38285;BME280;24088;42.664;23.354;2022-12-31T03:48:01;96171.03;;;3.78;100.00
38285;BME280;24088;42.664;23.354;2022-12-31T03:49:04;96165.03;;;3.72;100.00
38285;BME280;24088;42.664;23.354;2022-12-31T03:50:05;96168.53;;;3.72;100.00
38285;BME280;24088;42.664;23.354;2022-12-31T03:51:07;96164.72;;;3.73;100.00
38285;BME280;24088;42.664;23.354;2022-12-31T03:52:08;96171.97;;;3.85;100.00
38285;BME280;24088;42.664;23.354;2022-12-31T03:53:09;96175.75;;;3.81;100.00
38285;BME280;24088;42.664;23.354;2022-12-31T03:54:10;96176.41;;;3.62;100.00
38285;BME280;24088;42.664;23.354;2022-12-31T03:55:11;96179.94;;;3.50;100.00
38285;BME280;24088;42.664;23.354;2022-12-31T03:56:13;96178.72;;;3.47;100.00
38285;BME280;24088;42.664;23.354;2022-12-31T03:57:13;96173.00;;;3.65;100.00
38285;BME280;24088;42.664;23.354;2022-12-31T03:58:15;96172.84;;;3.73;100.00
38285;BME280;24088;42.664;23.354;2022-12-31T03:59:15;96177.19;;;3.62;100.00
38285;BME280;24088;42.664;23.354;2022-12-31T04:00:17;96175.31;;;3.50;100.00
38285;BME280;24088;42.664;23.354;2022-12-31T04:01:18;96177.94;;;3.47;100.00
38285;BME280;24088;42.664;23.354;2022-12-31T04:02:23;96175.88;;;3.56;100.00
38285;BME280;24088;42.664;23.354;2022-12-31T04:03:23;96179.63;;;3.51;100.00
38285;BME280;24088;42.664;23.354;2022-12-31T04:04:26;96170.81;;;3.42;100.00
38285;BME280;24088;42.664;23.354;2022-12-31T04:05:27;96176.31;;;3.58;100.00
38285;BME280;24088;42.664;23.354;2022-12-31T04:06:28;96175.91;;;3.44;100.00
38285;BME280;24088;42.664;23.354;2022-12-31T04:07:29;96175.81;;;3.40;100.00
38285;BME280;24088;42.664;23.354;2022-12-31T04:08:30;96176.72;;;3.32;100.00
38285;BME280;24088;42.664;23.354;2022-12-31T04:09:31;96175.59;;;3.33;100.00
38285;BME280;24088;42.664;23.354;2022-12-31T04:10:32;96176.16;;;3.39;100.00
38285;BME280;24088;42.664;23.354;2022-12-31T04:11:34;96181.53;;;3.51;100.00
38285;BME280;24088;42.664;23.354;2022-12-31T04:12:34;96176.84;;;3.64;100.00
38285;BME280;24088;42.664;23.354;2022-12-31T04:13:36;96178.81;;;3.51;100.00
38285;BME280;24088;42.664;23.354;2022-12-31T04:14:37;96187.56;;;3.44;100.00
38285;BME280;24088;42.664;23.354;2022-12-31T04:15:38;96183.16;;;3.40;100.00
38285;BME280;24088;42.664;23.354;2022-12-31T04:16:40;96182.69;;;3.38;100.00
38285;BME280;24088;42.664;23.354;2022-12-31T04:17:40;96190.97;;;3.29;100.00
38285;BME280;24088;42.664;23.354;2022-12-31T04:18:42;96182.38;;;3.39;100.00
38285;BME280;24088;42.664;23.354;2022-12-31T04:19:43;96178.16;;;3.42;100.00
38285;BME280;24088;42.664;23.354;2022-12-31T04:20:45;96189.41;;;3.28;100.00
38285;BME280;24088;42.664;23.354;2022-12-31T04:21:45;96185.66;;;3.33;100.00
38285;BME280;24088;42.664;23.354;2022-12-31T04:22:47;96182.38;;;3.39;100.00
38285;BME280;24088;42.664;23.354;2022-12-31T04:23:47;96191.59;;;3.22;100.00
38285;BME280;24088;42.664;23.354;2022-12-31T04:24:49;96190.09;;;3.25;100.00
38285;BME280;24088;42.664;23.354;2022-12-31T04:25:49;96190.91;;;3.25;100.00
38285;BME280;24088;42.664;23.354;2022-12-31T04:26:51;96193.56;;;3.38;100.00
38285;BME280;24088;42.664;23.354;2022-12-31T04:27:51;96187.06;;;3.26;100.00
38285;BME280;24088;42.664;23.354;2022-12-31T04:28:53;96192.38;;;3.11;100.00
38285;BME280;24088;42.664;23.354;2022-12-31T04:29:53;96186.19;;;3.10;100.00
38285;BME280;24088;42.664;23.354;2022-12-31T04:30:55;96187.19;;;3.18;100.00
38285;BME280;24088;42.664;23.354;2022-12-31T04:31:56;96191.00;;;3.17;100.00
38285;BME280;24088;42.664;23.354;2022-12-31T04:32:57;96192.38;;;3.23;100.00
38285;BME280;24088;42.664;23.354;2022-12-31T04:33:57;96196.00;;;3.15;100.00
38285;BME280;24088;42.664;23.354;2022-12-31T04:35:00;96198.59;;;3.23;100.00
38285;BME280;24088;42.664;23.354;2022-12-31T04:36:01;96200.53;;;3.11;100.00
38285;BME280;24088;42.664;23.354;2022-12-31T04:37:02;96197.84;;;2.98;100.00
38285;BME280;24088;42.664;23.354;2022-12-31T04:38:03;96200.31;;;3.04;100.00
38285;BME280;24088;42.664;23.354;2022-12-31T04:39:04;96207.41;;;3.20;100.00
38285;BME280;24088;42.664;23.354;2022-12-31T04:40:08;96207.63;;;3.15;100.00
38285;BME280;24088;42.664;23.354;2022-12-31T04:41:08;96205.97;;;3.11;100.00
38285;BME280;24088;42.664;23.354;2022-12-31T04:42:20;96208.00;;;3.14;100.00
38285;BME280;24088;42.664;23.354;2022-12-31T04:43:20;96212.41;;;3.06;100.00
38285;BME280;24088;42.664;23.354;2022-12-31T04:44:21;96209.47;;;2.99;100.00
38285;BME280;24088;42.664;23.354;2022-12-31T04:45:22;96205.72;;;3.16;100.00
38285;BME280;24088;42.664;23.354;2022-12-31T04:46:24;96213.75;;;3.12;100.00
38285;BME280;24088;42.664;23.354;2022-12-31T04:47:25;96212.97;;;3.12;100.00
38285;BME280;24088;42.664;23.354;2022-12-31T04:48:26;96208.44;;;3.04;100.00
38285;BME280;24088;42.664;23.354;2022-12-31T04:49:27;96211.06;;;3.00;100.00
38285;BME280;24088;42.664;23.354;2022-12-31T04:50:30;96209.25;;;3.04;100.00
38285;BME280;24088;42.664;23.354;2022-12-31T04:51:30;96217.47;;;3.08;100.00
38285;BME280;24088;42.664;23.354;2022-12-31T04:52:33;96220.41;;;3.15;100.00
38285;BME280;24088;42.664;23.354;2022-12-31T04:53:34;96219.50;;;3.23;100.00
38285;BME280;24088;42.664;23.354;2022-12-31T04:54:35;96214.50;;;3.37;100.00
38285;BME280;24088;42.664;23.354;2022-12-31T04:55:36;96212.25;;;3.39;100.00
38285;BME280;24088;42.664;23.354;2022-12-31T04:56:37;96213.94;;;3.32;100.00
38285;BME280;24088;42.664;23.354;2022-12-31T04:57:39;96211.50;;;3.14;100.00
38285;BME280;24088;42.664;23.354;2022-12-31T04:58:40;96218.06;;;3.13;100.00
38285;BME280;24088;42.664;23.354;2022-12-31T04:59:42;96217.41;;;3.04;100.00
38285;BME280;24088;42.664;23.354;2022-12-31T05:00:42;96215.59;;;2.96;100.00
38285;BME280;24088;42.664;23.354;2022-12-31T05:01:45;96227.22;;;2.96;100.00
38285;BME280;24088;42.664;23.354;2022-12-31T05:02:46;96224.03;;;3.07;100.00
38285;BME280;24088;42.664;23.354;2022-12-31T05:03:47;96226.09;;;3.10;100.00
38285;BME280;24088;42.664;23.354;2022-12-31T05:04:48;96224.28;;;3.01;100.00
38285;BME280;24088;42.664;23.354;2022-12-31T05:05:51;96233.69;;;3.04;100.00
38285;BME280;24088;42.664;23.354;2022-12-31T05:06:51;96226.53;;;3.12;100.00
38285;BME280;24088;42.664;23.354;2022-12-31T05:07:53;96236.94;;;3.10;100.00
38285;BME280;24088;42.664;23.354;2022-12-31T05:08:53;96236.59;;;3.11;100.00
38285;BME280;24088;42.664;23.354;2022-12-31T05:09:55;96236.81;;;3.06;100.00
38285;BME280;24088;42.664;23.354;2022-12-31T05:10:55;96234.78;;;3.15;100.00
38285;BME280;24088;42.664;23.354;2022-12-31T05:11:57;96239.16;;;3.32;100.00
38285;BME280;24088;42.664;23.354;2022-12-31T05:12:57;96246.03;;;3.42;100.00
38285;BME280;24088;42.664;23.354;2022-12-31T05:13:59;96240.53;;;3.26;100.00
38285;BME280;24088;42.664;23.354;2022-12-31T05:14:59;96242.69;;;3.20;100.00
38285;BME280;24088;42.664;23.354;2022-12-31T05:16:01;96248.22;;;2.99;100.00
38285;BME280;24088;42.664;23.354;2022-12-31T05:17:02;96246.22;;;3.09;100.00
38285;BME280;24088;42.664;23.354;2022-12-31T05:18:03;96249.72;;;3.21;100.00
38285;BME280;24088;42.664;23.354;2022-12-31T05:19:04;96254.91;;;3.26;100.00
38285;BME280;24088;42.664;23.354;2022-12-31T05:20:08;96254.91;;;3.14;100.00
38285;BME280;24088;42.664;23.354;2022-12-31T05:21:10;96257.97;;;3.13;100.00
38285;BME280;24088;42.664;23.354;2022-12-31T05:22:15;96258.06;;;3.16;100.00
38285;BME280;24088;42.664;23.354;2022-12-31T05:23:28;96251.59;;;3.33;100.00
38285;BME280;24088;42.664;23.354;2022-12-31T05:24:29;96257.22;;;3.53;100.00
38285;BME280;24088;42.664;23.354;2022-12-31T05:25:30;96262.50;;;3.61;100.00
38285;BME280;24088;42.664;23.354;2022-12-31T05:26:31;96263.31;;;3.62;100.00
38285;BME280;24088;42.664;23.354;2022-12-31T05:27:32;96268.06;;;3.65;100.00
38285;BME280;24088;42.664;23.354;2022-12-31T05:28:33;96266.69;;;3.59;100.00
38285;BME280;24088;42.664;23.354;2022-12-31T05:29:34;96266.59;;;3.55;100.00
38285;BME280;24088;42.664;23.354;2022-12-31T05:30:36;96268.34;;;3.23;100.00
38285;BME280;24088;42.664;23.354;2022-12-31T05:31:36;96262.13;;;3.22;100.00
38285;BME280;24088;42.664;23.354;2022-12-31T05:32:38;96264.13;;;3.38;100.00
38285;BME280;24088;42.664;23.354;2022-12-31T05:33:38;96266.19;;;3.29;100.00